sensor_id;sensor_type;location;lat;lon;timestamp;temperature;humidity
16485;DHT22;8353;47.856;12.344;2023-02-20T00:00:21;10.00;99.90
16485;DHT22;8353;47.856;12.344;2023-02-20T00:02:53;10.10;99.90
16485;DHT22;8353;47.856;12.344;2023-02-20T00:05:24;10.10;99.90
16485;DHT22;8353;47.856;12.344;2023-02-20T00:07:54;10.10;99.90
16485;DHT22;8353;47.856;12.344;2023-02-20T00:10:26;10.00;99.90
16485;DHT22;8353;47.856;12.344;2023-02-20T00:12:58;10.00;99.90
16485;DHT22;8353;47.856;12.344;2023-02-20T00:15:29;10.10;99.90
16485;DHT22;8353;47.856;12.344;2023-02-20T00:17:59;10.00;99.90
16485;DHT22;8353;47.856;12.344;2023-02-20T00:20:30;10.10;99.90
16485;DHT22;8353;47.856;12.344;2023-02-20T00:23:01;10.10;99.90
16485;DHT22;8353;47.856;12.344;2023-02-20T00:25:32;10.10;99.90
16485;DHT22;8353;47.856;12.344;2023-02-20T00:28:04;10.10;99.90
16485;DHT22;8353;47.856;12.344;2023-02-20T00:30:34;10.00;99.90
16485;DHT22;8353;47.856;12.344;2023-02-20T00:33:05;10.10;99.90
16485;DHT22;8353;47.856;12.344;2023-02-20T00:35:35;10.10;99.90
16485;DHT22;8353;47.856;12.344;2023-02-20T00:38:07;10.10;99.90
16485;DHT22;8353;47.856;12.344;2023-02-20T00:40:38;10.10;99.90
16485;DHT22;8353;47.856;12.344;2023-02-20T00:43:10;10.10;99.90
16485;DHT22;8353;47.856;12.344;2023-02-20T00:45:40;10.10;99.90
16485;DHT22;8353;47.856;12.344;2023-02-20T00:48:11;10.00;99.90
16485;DHT22;8353;47.856;12.344;2023-02-20T00:50:42;10.10;99.90
16485;DHT22;8353;47.856;12.344;2023-02-20T00:53:12;10.10;99.90
16485;DHT22;8353;47.856;12.344;2023-02-20T00:55:43;10.10;99.90
16485;DHT22;8353;47.856;12.344;2023-02-20T00:58:15;10.10;99.90
16485;DHT22;8353;47.856;12.344;2023-02-20T01:00:45;10.10;99.90
16485;DHT22;8353;47.856;12.344;2023-02-20T01:03:16;10.00;99.90
16485;DHT22;8353;47.856;12.344;2023-02-20T01:05:46;10.00;99.90
16485;DHT22;8353;47.856;12.344;2023-02-20T01:08:17;10.00;99.90
16485;DHT22;8353;47.856;12.344;2023-02-20T01:10:47;10.00;99.90
16485;DHT22;8353;47.856;12.344;2023-02-20T01:13:20;10.00;99.90
16485;DHT22;8353;47.856;12.344;2023-02-20T01:15:51;10.00;99.90
16485;DHT22;8353;47.856;12.344;2023-02-20T01:18:21;10.10;99.90
16485;DHT22;8353;47.856;12.344;2023-02-20T01:20:51;10.00;99.90
16485;DHT22;8353;47.856;12.344;2023-02-20T01:23:23;9.90;99.90
16485;DHT22;8353;47.856;12.344;2023-02-20T01:25:54;10.00;99.90
16485;DHT22;8353;47.856;12.344;2023-02-20T01:28:26;10.00;99.90
16485;DHT22;8353;47.856;12.344;2023-02-20T01:30:56;10.00;99.90
16485;DHT22;8353;47.856;12.344;2023-02-20T01:33:27;10.00;99.90
16485;DHT22;8353;47.856;12.344;2023-02-20T01:35:57;10.00;99.90
16485;DHT22;8353;47.856;12.344;2023-02-20T01:38:28;9.90;99.90
16485;DHT22;8353;47.856;12.344;2023-02-20T01:40:58;9.90;99.90
16485;DHT22;8353;47.856;12.344;2023-02-20T01:43:30;9.90;99.90
16485;DHT22;8353;47.856;12.344;2023-02-20T01:49:10;9.90;99.90
16485;DHT22;8353;47.856;12.344;2023-02-20T01:51:46;9.90;99.90
16485;DHT22;8353;47.856;12.344;2023-02-20T01:54:20;9.90;99.90
16485;DHT22;8353;47.856;12.344;2023-02-20T01:56:53;10.00;99.90
16485;DHT22;8353;47.856;12.344;2023-02-20T01:59:29;10.00;99.90
16485;DHT22;8353;47.856;12.344;2023-02-20T02:02:01;10.00;99.90
16485;DHT22;8353;47.856;12.344;2023-02-20T02:04:32;10.00;99.90
16485;DHT22;8353;47.856;12.344;2023-02-20T02:07:18;10.00;99.90
16485;DHT22;8353;47.856;12.344;2023-02-20T02:09:52;9.90;99.90
16485;DHT22;8353;47.856;12.344;2023-02-20T02:12:24;9.90;99.90
16485;DHT22;8353;47.856;12.344;2023-02-20T02:14:57;9.90;99.90
16485;DHT22;8353;47.856;12.344;2023-02-20T02:27:38;9.90;99.90
16485;DHT22;8353;47.856;12.344;2023-02-20T02:34:07;10.00;99.90
16485;DHT22;8353;47.856;12.344;2023-02-20T02:37:02;10.00;99.90
16485;DHT22;8353;47.856;12.344;2023-02-20T02:39:42;9.90;99.90
16485;DHT22;8353;47.856;12.344;2023-02-20T02:42:21;9.90;99.90
16485;DHT22;8353;47.856;12.344;2023-02-20T02:44:56;9.80;99.90
16485;DHT22;8353;47.856;12.344;2023-02-20T02:47:36;9.80;99.90
16485;DHT22;8353;47.856;12.344;2023-02-20T02:50:14;9.90;99.90
16485;DHT22;8353;47.856;12.344;2023-02-20T02:52:46;10.00;99.90
16485;DHT22;8353;47.856;12.344;2023-02-20T02:55:20;9.90;99.90
16485;DHT22;8353;47.856;12.344;2023-02-20T02:57:51;9.80;99.90
16485;DHT22;8353;47.856;12.344;2023-02-20T03:00:25;9.80;99.90
16485;DHT22;8353;47.856;12.344;2023-02-20T03:03:03;9.80;99.90
16485;DHT22;8353;47.856;12.344;2023-02-20T03:05:40;9.90;99.90
16485;DHT22;8353;47.856;12.344;2023-02-20T03:08:22;9.90;99.90
16485;DHT22;8353;47.856;12.344;2023-02-20T03:11:04;9.80;99.90
16485;DHT22;8353;47.856;12.344;2023-02-20T03:13:38;9.90;99.90
16485;DHT22;8353;47.856;12.344;2023-02-20T03:16:29;9.90;99.90
16485;DHT22;8353;47.856;12.344;2023-02-20T03:19:02;9.90;99.90
16485;DHT22;8353;47.856;12.344;2023-02-20T03:21:36;9.90;99.90
16485;DHT22;8353;47.856;12.344;2023-02-20T03:24:09;9.90;99.90
16485;DHT22;8353;47.856;12.344;2023-02-20T03:26:41;9.90;99.90
16485;DHT22;8353;47.856;12.344;2023-02-20T03:29:15;10.00;99.90
16485;DHT22;8353;47.856;12.344;2023-02-20T03:31:55;9.80;99.90
16485;DHT22;8353;47.856;12.344;2023-02-20T03:34:45;9.80;99.90
16485;DHT22;8353;47.856;12.344;2023-02-20T03:37:38;9.70;99.90
16485;DHT22;8353;47.856;12.344;2023-02-20T03:40:30;9.80;99.90
16485;DHT22;8353;47.856;12.344;2023-02-20T03:43:20;9.80;99.90
16485;DHT22;8353;47.856;12.344;2023-02-20T03:45:51;9.70;99.90
16485;DHT22;8353;47.856;12.344;2023-02-20T03:48:28;9.70;99.90
16485;DHT22;8353;47.856;12.344;2023-02-20T03:51:00;9.80;99.90
16485;DHT22;8353;47.856;12.344;2023-02-20T03:53:31;9.80;99.90
16485;DHT22;8353;47.856;12.344;2023-02-20T03:56:06;9.80;99.90
16485;DHT22;8353;47.856;12.344;2023-02-20T03:58:41;9.80;99.90
16485;DHT22;8353;47.856;12.344;2023-02-20T04:01:14;9.80;99.90
16485;DHT22;8353;47.856;12.344;2023-02-20T04:03:48;9.80;99.90
16485;DHT22;8353;47.856;12.344;2023-02-20T04:06:21;9.80;99.90
16485;DHT22;8353;47.856;12.344;2023-02-20T04:08:57;9.90;99.90
16485;DHT22;8353;47.856;12.344;2023-02-20T04:11:33;9.90;99.90
16485;DHT22;8353;47.856;12.344;2023-02-20T04:14:06;9.90;99.90
16485;DHT22;8353;47.856;12.344;2023-02-20T04:16:43;9.80;99.90
16485;DHT22;8353;47.856;12.344;2023-02-20T04:19:15;9.90;99.90
16485;DHT22;8353;47.856;12.344;2023-02-20T04:21:49;9.80;99.90
16485;DHT22;8353;47.856;12.344;2023-02-20T04:24:25;9.80;99.90
16485;DHT22;8353;47.856;12.344;2023-02-20T04:27:00;9.80;99.90
16485;DHT22;8353;47.856;12.344;2023-02-20T04:29:31;9.70;99.90
16485;DHT22;8353;47.856;12.344;2023-02-20T04:32:02;9.60;99.90
16485;DHT22;8353;47.856;12.344;2023-02-20T04:34:32;9.60;99.90
16485;DHT22;8353;47.856;12.344;2023-02-20T04:37:07;9.50;99.90
16485;DHT22;8353;47.856;12.344;2023-02-20T04:39:39;9.50;99.90
16485;DHT22;8353;47.856;12.344;2023-02-20T04:42:11;9.60;99.90
16485;DHT22;8353;47.856;12.344;2023-02-20T04:44:42;9.60;99.90
16485;DHT22;8353;47.856;12.344;2023-02-20T04:47:14;9.50;99.90
16485;DHT22;8353;47.856;12.344;2023-02-20T04:49:46;9.50;99.90
16485;DHT22;8353;47.856;12.344;2023-02-20T04:52:16;9.50;99.90
16485;DHT22;8353;47.856;12.344;2023-02-20T04:54:46;9.40;99.90
16485;DHT22;8353;47.856;12.344;2023-02-20T04:57:19;9.30;99.90
16485;DHT22;8353;47.856;12.344;2023-02-20T04:59:50;9.40;99.90
16485;DHT22;8353;47.856;12.344;2023-02-20T05:02:21;9.40;99.90
16485;DHT22;8353;47.856;12.344;2023-02-20T05:04:51;9.50;99.90
16485;DHT22;8353;47.856;12.344;2023-02-20T05:07:21;9.50;99.90
16485;DHT22;8353;47.856;12.344;2023-02-20T05:09:52;9.50;99.90
16485;DHT22;8353;47.856;12.344;2023-02-20T05:12:24;9.50;99.90
16485;DHT22;8353;47.856;12.344;2023-02-20T05:14:55;9.50;99.90
16485;DHT22;8353;47.856;12.344;2023-02-20T05:17:26;9.40;99.90
16485;DHT22;8353;47.856;12.344;2023-02-20T05:19:56;9.50;99.90
16485;DHT22;8353;47.856;12.344;2023-02-20T05:22:28;9.50;99.90
16485;DHT22;8353;47.856;12.344;2023-02-20T05:24:59;9.40;99.90
16485;DHT22;8353;47.856;12.344;2023-02-20T05:27:31;9.40;99.90
16485;DHT22;8353;47.856;12.344;2023-02-20T05:30:02;9.40;99.90
16485;DHT22;8353;47.856;12.344;2023-02-20T05:32:33;9.40;99.90
16485;DHT22;8353;47.856;12.344;2023-02-20T05:35:04;9.30;99.90
16485;DHT22;8353;47.856;12.344;2023-02-20T05:37:35;9.30;99.90
16485;DHT22;8353;47.856;12.344;2023-02-20T05:40:06;9.20;99.90
16485;DHT22;8353;47.856;12.344;2023-02-20T05:42:40;9.20;99.90
16485;DHT22;8353;47.856;12.344;2023-02-20T05:45:13;9.20;99.90
16485;DHT22;8353;47.856;12.344;2023-02-20T05:47:44;9.30;99.90
16485;DHT22;8353;47.856;12.344;2023-02-20T05:50:15;9.30;99.90
16485;DHT22;8353;47.856;12.344;2023-02-20T05:52:46;9.40;99.90
16485;DHT22;8353;47.856;12.344;2023-02-20T05:55:16;9.30;99.90
16485;DHT22;8353;47.856;12.344;2023-02-20T05:57:49;9.30;99.90
16485;DHT22;8353;47.856;12.344;2023-02-20T06:00:20;9.30;99.90
16485;DHT22;8353;47.856;12.344;2023-02-20T06:02:51;9.20;99.90
16485;DHT22;8353;47.856;12.344;2023-02-20T06:05:21;9.20;99.90
16485;DHT22;8353;47.856;12.344;2023-02-20T06:07:52;9.20;99.90
16485;DHT22;8353;47.856;12.344;2023-02-20T06:10:23;9.20;99.90
16485;DHT22;8353;47.856;12.344;2023-02-20T06:12:55;9.20;99.90
16485;DHT22;8353;47.856;12.344;2023-02-20T06:15:26;9.20;99.90
16485;DHT22;8353;47.856;12.344;2023-02-20T06:17:56;9.20;99.90
16485;DHT22;8353;47.856;12.344;2023-02-20T06:20:26;9.20;99.90
16485;DHT22;8353;47.856;12.344;2023-02-20T06:22:57;9.10;99.90
16485;DHT22;8353;47.856;12.344;2023-02-20T06:25:28;9.10;99.90
16485;DHT22;8353;47.856;12.344;2023-02-20T06:28:00;9.10;99.90
16485;DHT22;8353;47.856;12.344;2023-02-20T06:30:31;9.20;99.90
16485;DHT22;8353;47.856;12.344;2023-02-20T06:33:01;9.10;99.90
16485;DHT22;8353;47.856;12.344;2023-02-20T06:35:31;9.00;99.90
16485;DHT22;8353;47.856;12.344;2023-02-20T06:38:02;9.00;99.90
16485;DHT22;8353;47.856;12.344;2023-02-20T06:40:49;9.00;99.90
16485;DHT22;8353;47.856;12.344;2023-02-20T06:43:22;9.00;99.90
16485;DHT22;8353;47.856;12.344;2023-02-20T06:45:53;9.00;99.90
16485;DHT22;8353;47.856;12.344;2023-02-20T06:48:24;9.00;99.90
16485;DHT22;8353;47.856;12.344;2023-02-20T06:50:54;9.00;99.90
16485;DHT22;8353;47.856;12.344;2023-02-20T06:53:26;9.10;99.90
16485;DHT22;8353;47.856;12.344;2023-02-20T06:55:56;9.10;99.90
16485;DHT22;8353;47.856;12.344;2023-02-20T06:58:28;9.20;99.90
16485;DHT22;8353;47.856;12.344;2023-02-20T07:00:58;9.20;99.90
16485;DHT22;8353;47.856;12.344;2023-02-20T07:03:29;9.20;99.90
16485;DHT22;8353;47.856;12.344;2023-02-20T07:05:59;9.30;99.90
16485;DHT22;8353;47.856;12.344;2023-02-20T07:08:30;9.80;99.90
16485;DHT22;8353;47.856;12.344;2023-02-20T07:11:00;10.20;99.90
16485;DHT22;8353;47.856;12.344;2023-02-20T07:13:32;10.60;99.90
16485;DHT22;8353;47.856;12.344;2023-02-20T07:16:03;10.80;99.90
16485;DHT22;8353;47.856;12.344;2023-02-20T07:18:34;10.80;99.90
16485;DHT22;8353;47.856;12.344;2023-02-20T07:21:05;10.80;99.90
16485;DHT22;8353;47.856;12.344;2023-02-20T07:23:35;10.80;99.90
16485;DHT22;8353;47.856;12.344;2023-02-20T07:26:06;10.60;99.90
16485;DHT22;8353;47.856;12.344;2023-02-20T07:28:38;10.50;99.90
16485;DHT22;8353;47.856;12.344;2023-02-20T07:31:08;10.30;99.90
16485;DHT22;8353;47.856;12.344;2023-02-20T07:33:39;10.20;99.90
16485;DHT22;8353;47.856;12.344;2023-02-20T07:36:13;10.10;99.90
16485;DHT22;8353;47.856;12.344;2023-02-20T07:38:52;10.10;99.90
16485;DHT22;8353;47.856;12.344;2023-02-20T07:41:23;10.20;99.90
16485;DHT22;8353;47.856;12.344;2023-02-20T07:43:55;10.20;99.90
16485;DHT22;8353;47.856;12.344;2023-02-20T07:46:25;10.30;99.90
16485;DHT22;8353;47.856;12.344;2023-02-20T07:48:56;10.30;99.90
16485;DHT22;8353;47.856;12.344;2023-02-20T07:51:27;10.30;99.90
16485;DHT22;8353;47.856;12.344;2023-02-20T07:53:58;10.30;99.90
16485;DHT22;8353;47.856;12.344;2023-02-20T07:56:29;10.20;99.90
16485;DHT22;8353;47.856;12.344;2023-02-20T07:59:01;10.30;99.90
16485;DHT22;8353;47.856;12.344;2023-02-20T08:01:32;10.30;99.90
16485;DHT22;8353;47.856;12.344;2023-02-20T08:04:03;10.30;99.90
16485;DHT22;8353;47.856;12.344;2023-02-20T08:06:34;10.30;99.90
16485;DHT22;8353;47.856;12.344;2023-02-20T08:09:04;10.30;99.90
16485;DHT22;8353;47.856;12.344;2023-02-20T08:11:36;10.30;99.90
16485;DHT22;8353;47.856;12.344;2023-02-20T08:14:08;10.40;99.90
16485;DHT22;8353;47.856;12.344;2023-02-20T08:16:39;10.40;99.90
16485;DHT22;8353;47.856;12.344;2023-02-20T08:19:09;10.40;99.90
16485;DHT22;8353;47.856;12.344;2023-02-20T08:21:40;10.50;99.90
16485;DHT22;8353;47.856;12.344;2023-02-20T08:24:11;10.40;99.90
16485;DHT22;8353;47.856;12.344;2023-02-20T08:26:42;10.40;99.90
16485;DHT22;8353;47.856;12.344;2023-02-20T08:29:15;10.40;99.90
16485;DHT22;8353;47.856;12.344;2023-02-20T08:31:46;10.50;99.90
16485;DHT22;8353;47.856;12.344;2023-02-20T08:34:17;10.50;99.90
16485;DHT22;8353;47.856;12.344;2023-02-20T08:36:47;10.60;99.90
16485;DHT22;8353;47.856;12.344;2023-02-20T08:39:18;10.60;99.90
16485;DHT22;8353;47.856;12.344;2023-02-20T08:41:49;10.60;99.90
16485;DHT22;8353;47.856;12.344;2023-02-20T08:44:21;10.70;99.90
16485;DHT22;8353;47.856;12.344;2023-02-20T08:46:52;10.70;99.90
16485;DHT22;8353;47.856;12.344;2023-02-20T08:49:23;10.80;99.90
16485;DHT22;8353;47.856;12.344;2023-02-20T08:51:54;10.80;99.90
16485;DHT22;8353;47.856;12.344;2023-02-20T08:54:26;10.90;99.90
16485;DHT22;8353;47.856;12.344;2023-02-20T08:56:57;10.90;99.90
16485;DHT22;8353;47.856;12.344;2023-02-20T08:59:31;10.90;99.90
16485;DHT22;8353;47.856;12.344;2023-02-20T09:02:02;10.90;99.90
16485;DHT22;8353;47.856;12.344;2023-02-20T09:04:33;11.00;99.90
16485;DHT22;8353;47.856;12.344;2023-02-20T09:07:03;11.10;99.90
16485;DHT22;8353;47.856;12.344;2023-02-20T09:09:33;11.10;99.90
16485;DHT22;8353;47.856;12.344;2023-02-20T09:12:05;11.30;99.90
16485;DHT22;8353;47.856;12.344;2023-02-20T09:14:37;11.30;99.90
16485;DHT22;8353;47.856;12.344;2023-02-20T09:17:08;11.30;99.90
16485;DHT22;8353;47.856;12.344;2023-02-20T09:19:39;11.30;99.90
16485;DHT22;8353;47.856;12.344;2023-02-20T09:22:10;11.30;99.90
16485;DHT22;8353;47.856;12.344;2023-02-20T09:24:46;11.40;99.90
16485;DHT22;8353;47.856;12.344;2023-02-20T09:27:16;11.50;99.90
16485;DHT22;8353;47.856;12.344;2023-02-20T09:29:48;11.60;99.90
16485;DHT22;8353;47.856;12.344;2023-02-20T09:32:19;11.60;99.90
16485;DHT22;8353;47.856;12.344;2023-02-20T09:34:49;11.60;99.90
16485;DHT22;8353;47.856;12.344;2023-02-20T09:37:20;11.60;99.90
16485;DHT22;8353;47.856;12.344;2023-02-20T09:39:54;11.70;99.90
16485;DHT22;8353;47.856;12.344;2023-02-20T09:42:32;11.80;99.90
16485;DHT22;8353;47.856;12.344;2023-02-20T09:45:11;11.90;99.90
16485;DHT22;8353;47.856;12.344;2023-02-20T09:47:55;11.90;99.90
16485;DHT22;8353;47.856;12.344;2023-02-20T09:50:33;12.00;99.90
16485;DHT22;8353;47.856;12.344;2023-02-20T09:53:15;12.00;99.90
16485;DHT22;8353;47.856;12.344;2023-02-20T09:55:50;12.00;99.90
16485;DHT22;8353;47.856;12.344;2023-02-20T09:58:25;12.10;99.90
16485;DHT22;8353;47.856;12.344;2023-02-20T10:01:00;12.20;99.90
16485;DHT22;8353;47.856;12.344;2023-02-20T10:03:35;12.20;99.90
16485;DHT22;8353;47.856;12.344;2023-02-20T10:06:15;12.20;99.90
16485;DHT22;8353;47.856;12.344;2023-02-20T10:08:47;12.30;99.90
16485;DHT22;8353;47.856;12.344;2023-02-20T10:11:40;12.30;99.90
16485;DHT22;8353;47.856;12.344;2023-02-20T10:14:26;12.40;99.90
16485;DHT22;8353;47.856;12.344;2023-02-20T10:17:11;12.60;99.90
16485;DHT22;8353;47.856;12.344;2023-02-20T10:19:48;12.80;99.90
16485;DHT22;8353;47.856;12.344;2023-02-20T10:22:23;12.80;99.90
16485;DHT22;8353;47.856;12.344;2023-02-20T10:25:05;12.80;99.90
16485;DHT22;8353;47.856;12.344;2023-02-20T10:27:47;12.90;99.90
16485;DHT22;8353;47.856;12.344;2023-02-20T10:30:26;12.90;99.90
16485;DHT22;8353;47.856;12.344;2023-02-20T10:33:03;13.00;99.90
16485;DHT22;8353;47.856;12.344;2023-02-20T10:35:43;13.10;99.90
16485;DHT22;8353;47.856;12.344;2023-02-20T10:38:17;13.30;99.90
16485;DHT22;8353;47.856;12.344;2023-02-20T10:40:55;13.50;99.90
16485;DHT22;8353;47.856;12.344;2023-02-20T10:43:31;13.60;99.90
16485;DHT22;8353;47.856;12.344;2023-02-20T10:46:08;13.70;99.90
16485;DHT22;8353;47.856;12.344;2023-02-20T10:48:42;13.80;99.90
16485;DHT22;8353;47.856;12.344;2023-02-20T10:51:17;13.90;99.90
16485;DHT22;8353;47.856;12.344;2023-02-20T10:53:53;14.00;99.90
16485;DHT22;8353;47.856;12.344;2023-02-20T10:56:29;14.00;99.90
16485;DHT22;8353;47.856;12.344;2023-02-20T10:59:06;14.10;99.90
16485;DHT22;8353;47.856;12.344;2023-02-20T11:01:39;14.10;99.90
16485;DHT22;8353;47.856;12.344;2023-02-20T11:04:13;14.00;99.90
16485;DHT22;8353;47.856;12.344;2023-02-20T11:06:47;13.90;99.90
16485;DHT22;8353;47.856;12.344;2023-02-20T11:09:19;14.10;99.90
16485;DHT22;8353;47.856;12.344;2023-02-20T11:11:52;14.30;99.90
16485;DHT22;8353;47.856;12.344;2023-02-20T11:14:29;14.40;99.90
16485;DHT22;8353;47.856;12.344;2023-02-20T11:17:08;14.50;99.90
16485;DHT22;8353;47.856;12.344;2023-02-20T11:19:43;14.60;99.90
16485;DHT22;8353;47.856;12.344;2023-02-20T11:22:17;14.70;99.90
16485;DHT22;8353;47.856;12.344;2023-02-20T11:24:48;14.80;99.90
16485;DHT22;8353;47.856;12.344;2023-02-20T11:27:21;14.80;99.90
16485;DHT22;8353;47.856;12.344;2023-02-20T11:29:54;14.80;99.90
16485;DHT22;8353;47.856;12.344;2023-02-20T11:32:32;15.00;99.90
16485;DHT22;8353;47.856;12.344;2023-02-20T11:35:27;15.10;99.90
16485;DHT22;8353;47.856;12.344;2023-02-20T11:38:25;15.10;99.90
16485;DHT22;8353;47.856;12.344;2023-02-20T11:41:05;15.20;99.90
16485;DHT22;8353;47.856;12.344;2023-02-20T11:43:38;15.20;99.90
16485;DHT22;8353;47.856;12.344;2023-02-20T11:46:13;15.20;99.90
16485;DHT22;8353;47.856;12.344;2023-02-20T11:48:58;15.30;99.90
16485;DHT22;8353;47.856;12.344;2023-02-20T11:51:36;15.40;99.90
16485;DHT22;8353;47.856;12.344;2023-02-20T11:54:12;15.40;99.90
16485;DHT22;8353;47.856;12.344;2023-02-20T11:56:58;15.50;99.90
16485;DHT22;8353;47.856;12.344;2023-02-20T11:59:35;15.60;99.90
16485;DHT22;8353;47.856;12.344;2023-02-20T12:02:25;15.70;99.90
16485;DHT22;8353;47.856;12.344;2023-02-20T12:05:03;15.80;99.90
16485;DHT22;8353;47.856;12.344;2023-02-20T12:07:38;15.90;99.90
16485;DHT22;8353;47.856;12.344;2023-02-20T12:10:23;15.90;99.90
16485;DHT22;8353;47.856;12.344;2023-02-20T12:12:55;16.00;99.90
16485;DHT22;8353;47.856;12.344;2023-02-20T12:15:27;16.20;99.90
16485;DHT22;8353;47.856;12.344;2023-02-20T12:18:27;16.30;99.90
16485;DHT22;8353;47.856;12.344;2023-02-20T12:21:09;16.40;99.90
16485;DHT22;8353;47.856;12.344;2023-02-20T12:23:50;16.60;99.90
16485;DHT22;8353;47.856;12.344;2023-02-20T12:26:33;16.70;99.90
16485;DHT22;8353;47.856;12.344;2023-02-20T12:29:30;16.70;99.90
16485;DHT22;8353;47.856;12.344;2023-02-20T12:32:24;16.70;99.90
16485;DHT22;8353;47.856;12.344;2023-02-20T12:35:05;16.80;99.90
16485;DHT22;8353;47.856;12.344;2023-02-20T12:37:48;16.90;99.90
16485;DHT22;8353;47.856;12.344;2023-02-20T12:40:36;17.00;99.90
16485;DHT22;8353;47.856;12.344;2023-02-20T12:43:21;17.20;99.90
16485;DHT22;8353;47.856;12.344;2023-02-20T12:45:58;17.20;99.90
16485;DHT22;8353;47.856;12.344;2023-02-20T12:48:44;17.30;99.90
16485;DHT22;8353;47.856;12.344;2023-02-20T12:51:24;17.30;99.90
16485;DHT22;8353;47.856;12.344;2023-02-20T12:54:06;17.40;99.90
16485;DHT22;8353;47.856;12.344;2023-02-20T12:56:52;17.60;99.90
16485;DHT22;8353;47.856;12.344;2023-02-20T12:59:27;17.60;99.90
16485;DHT22;8353;47.856;12.344;2023-02-20T13:02:03;17.60;99.90
16485;DHT22;8353;47.856;12.344;2023-02-20T13:04:45;17.60;99.90
16485;DHT22;8353;47.856;12.344;2023-02-20T13:07:21;17.70;99.90
16485;DHT22;8353;47.856;12.344;2023-02-20T13:10:02;17.70;99.90
16485;DHT22;8353;47.856;12.344;2023-02-20T13:12:35;17.60;99.90
16485;DHT22;8353;47.856;12.344;2023-02-20T13:15:24;17.50;99.90
16485;DHT22;8353;47.856;12.344;2023-02-20T13:18:08;17.50;99.90
16485;DHT22;8353;47.856;12.344;2023-02-20T13:20:46;17.50;99.90
16485;DHT22;8353;47.856;12.344;2023-02-20T13:23:29;17.60;99.90
16485;DHT22;8353;47.856;12.344;2023-02-20T13:26:01;17.40;99.90
16485;DHT22;8353;47.856;12.344;2023-02-20T13:28:36;17.40;99.90
16485;DHT22;8353;47.856;12.344;2023-02-20T13:31:14;17.40;99.90
16485;DHT22;8353;47.856;12.344;2023-02-20T13:33:47;17.50;99.90
16485;DHT22;8353;47.856;12.344;2023-02-20T13:36:41;17.60;99.90
16485;DHT22;8353;47.856;12.344;2023-02-20T13:39:40;17.80;99.90
16485;DHT22;8353;47.856;12.344;2023-02-20T13:42:32;17.70;99.90
16485;DHT22;8353;47.856;12.344;2023-02-20T13:45:39;17.70;99.90
16485;DHT22;8353;47.856;12.344;2023-02-20T13:48:18;17.80;99.90
16485;DHT22;8353;47.856;12.344;2023-02-20T13:50:48;17.70;99.90
16485;DHT22;8353;47.856;12.344;2023-02-20T13:53:19;17.80;99.90
16485;DHT22;8353;47.856;12.344;2023-02-20T13:55:50;18.00;99.90
16485;DHT22;8353;47.856;12.344;2023-02-20T13:58:20;18.00;99.90
16485;DHT22;8353;47.856;12.344;2023-02-20T14:00:53;18.00;99.90
16485;DHT22;8353;47.856;12.344;2023-02-20T14:03:25;18.00;99.90
16485;DHT22;8353;47.856;12.344;2023-02-20T14:06:05;18.10;99.90
16485;DHT22;8353;47.856;12.344;2023-02-20T14:08:38;18.00;99.90
16485;DHT22;8353;47.856;12.344;2023-02-20T14:11:12;18.00;99.90
16485;DHT22;8353;47.856;12.344;2023-02-20T14:13:45;18.00;99.90
16485;DHT22;8353;47.856;12.344;2023-02-20T14:16:28;18.00;99.90
16485;DHT22;8353;47.856;12.344;2023-02-20T14:19:02;17.90;99.90
16485;DHT22;8353;47.856;12.344;2023-02-20T14:21:35;17.70;99.90
16485;DHT22;8353;47.856;12.344;2023-02-20T14:24:16;17.60;99.90
16485;DHT22;8353;47.856;12.344;2023-02-20T14:26:48;17.50;99.90
16485;DHT22;8353;47.856;12.344;2023-02-20T14:29:22;17.50;99.90
16485;DHT22;8353;47.856;12.344;2023-02-20T14:31:55;17.30;99.90
16485;DHT22;8353;47.856;12.344;2023-02-20T14:34:31;17.30;99.90
16485;DHT22;8353;47.856;12.344;2023-02-20T14:37:09;17.40;99.90
16485;DHT22;8353;47.856;12.344;2023-02-20T14:39:50;17.40;99.90
16485;DHT22;8353;47.856;12.344;2023-02-20T14:42:24;17.40;99.90
16485;DHT22;8353;47.856;12.344;2023-02-20T14:44:58;17.30;99.90
16485;DHT22;8353;47.856;12.344;2023-02-20T14:47:32;17.40;99.90
16485;DHT22;8353;47.856;12.344;2023-02-20T14:50:13;17.40;99.90
16485;DHT22;8353;47.856;12.344;2023-02-20T14:52:45;17.40;99.90
16485;DHT22;8353;47.856;12.344;2023-02-20T14:55:17;17.50;99.90
16485;DHT22;8353;47.856;12.344;2023-02-20T14:57:48;17.50;99.90
16485;DHT22;8353;47.856;12.344;2023-02-20T15:00:31;17.60;99.90
16485;DHT22;8353;47.856;12.344;2023-02-20T15:03:08;17.50;99.90
16485;DHT22;8353;47.856;12.344;2023-02-20T15:05:40;17.50;99.90
16485;DHT22;8353;47.856;12.344;2023-02-20T15:08:20;17.50;99.90
16485;DHT22;8353;47.856;12.344;2023-02-20T15:10:53;17.50;99.90
16485;DHT22;8353;47.856;12.344;2023-02-20T15:13:26;17.60;99.90
16485;DHT22;8353;47.856;12.344;2023-02-20T15:16:05;17.50;99.90
16485;DHT22;8353;47.856;12.344;2023-02-20T15:18:39;17.50;99.90
16485;DHT22;8353;47.856;12.344;2023-02-20T15:21:11;17.50;99.90
16485;DHT22;8353;47.856;12.344;2023-02-20T15:23:43;17.60;99.90
16485;DHT22;8353;47.856;12.344;2023-02-20T15:26:27;17.60;99.90
16485;DHT22;8353;47.856;12.344;2023-02-20T15:29:20;17.60;99.90
16485;DHT22;8353;47.856;12.344;2023-02-20T15:31:55;17.70;99.90
16485;DHT22;8353;47.856;12.344;2023-02-20T15:34:29;17.70;99.90
16485;DHT22;8353;47.856;12.344;2023-02-20T15:37:00;17.70;99.90
16485;DHT22;8353;47.856;12.344;2023-02-20T15:39:38;17.80;99.90
16485;DHT22;8353;47.856;12.344;2023-02-20T15:42:10;17.70;99.90
16485;DHT22;8353;47.856;12.344;2023-02-20T15:44:41;17.70;99.90
16485;DHT22;8353;47.856;12.344;2023-02-20T15:47:12;17.70;99.90
16485;DHT22;8353;47.856;12.344;2023-02-20T15:49:43;17.70;99.90
16485;DHT22;8353;47.856;12.344;2023-02-20T15:52:17;17.70;99.90
16485;DHT22;8353;47.856;12.344;2023-02-20T15:54:52;17.70;99.90
16485;DHT22;8353;47.856;12.344;2023-02-20T15:57:24;17.70;99.90
16485;DHT22;8353;47.856;12.344;2023-02-20T15:59:54;17.60;99.90
16485;DHT22;8353;47.856;12.344;2023-02-20T16:02:25;17.50;99.90
16485;DHT22;8353;47.856;12.344;2023-02-20T16:04:56;17.30;99.90
16485;DHT22;8353;47.856;12.344;2023-02-20T16:07:27;17.20;99.90
16485;DHT22;8353;47.856;12.344;2023-02-20T16:09:58;17.10;99.90
16485;DHT22;8353;47.856;12.344;2023-02-20T16:12:29;16.90;99.90
16485;DHT22;8353;47.856;12.344;2023-02-20T16:15:02;16.70;99.90
16485;DHT22;8353;47.856;12.344;2023-02-20T16:17:34;16.60;99.90
16485;DHT22;8353;47.856;12.344;2023-02-20T16:20:13;16.60;99.90
16485;DHT22;8353;47.856;12.344;2023-02-20T16:22:44;16.50;99.90
16485;DHT22;8353;47.856;12.344;2023-02-20T16:25:17;16.40;99.90
16485;DHT22;8353;47.856;12.344;2023-02-20T16:27:51;16.30;99.90
16485;DHT22;8353;47.856;12.344;2023-02-20T16:30:25;16.20;99.90
16485;DHT22;8353;47.856;12.344;2023-02-20T16:32:57;16.20;99.90
16485;DHT22;8353;47.856;12.344;2023-02-20T16:35:29;16.00;99.90
16485;DHT22;8353;47.856;12.344;2023-02-20T16:37:59;16.00;99.90